Back to Top

Language: 

My Weather Underground Personal Weather Station Historical Data with Graphs...

Delerius Weather Station Historical Data
Daily Summary for March 21, 2017 Units:  English    Metric   Both
« Previous Day
Next Day »
Daily Weekly Monthly Yearly Custom
  High: Low: Average:
Temperature: 49.5 °F 36.1 °F 42.2 °F
Dew Point: 37.6 °F 28.1 °F 33.3 °F
Humidity: 90 % 44 % 72 %
Wind Speed: 21.0 mph 2.0 mph 12.7 mph
Wind Gust: 35.0 mph - -
Wind:- - WSW
Pressure: 29.71 in 29.52 in -
Precipitation: 0.04 in    
Historical Graphs
 
 
Tabular Data for March 21, 2017
Time Temperature Dew Point Pressure Wind Wind Speed Wind Gust Humidity Rainfall Rate (Hourly) solar Conditions
00:02 39.6 °F 36.3 °F 29.53 in WSW 11.0 mph 21.0 mph 88 % 0.02 in 0 W/m2
00:07 39.4 °F 36.4 °F 29.53 in WSW 11.0 mph 21.0 mph 89 % 0.02 in 0 W/m2
00:12 39.4 °F 36.4 °F 29.52 in WSW 11.0 mph 21.0 mph 89 % 0.02 in 0 W/m2
00:17 39.4 °F 36.4 °F 29.52 in WSW 11.0 mph 19.0 mph 89 % 0.02 in 0 W/m2
00:22 39.6 °F 36.6 °F 29.52 in WSW 12.0 mph 23.0 mph 89 % 0.02 in 0 W/m2
00:27 39.7 °F 36.5 °F 29.52 in WSW 13.0 mph 23.0 mph 88 % 0.02 in 0 W/m2
00:33 39.7 °F 36.5 °F 29.53 in WSW 13.0 mph 21.0 mph 88 % 0.01 in 0 W/m2
00:38 39.9 °F 36.7 °F 29.52 in WSW 12.0 mph 21.0 mph 88 % 0.00 in 0 W/m2
00:43 40.1 °F 36.8 °F 29.53 in WSW 12.0 mph 26.0 mph 88 % 0.00 in 0 W/m2
00:48 40.3 °F 36.7 °F 29.53 in WSW 14.0 mph 26.0 mph 87 % 0.00 in 0 W/m2
00:53 40.3 °F 36.4 °F 29.53 in WSW 14.0 mph 25.0 mph 86 % 0.00 in 0 W/m2
00:58 40.3 °F 36.4 °F 29.53 in WSW 13.0 mph 25.0 mph 86 % 0.00 in 0 W/m2
01:03 40.3 °F 36.4 °F 29.53 in West 13.0 mph 24.0 mph 86 % 0.00 in 0 W/m2
01:08 40.3 °F 36.1 °F 29.53 in WSW 14.0 mph 24.0 mph 85 % 0.00 in 0 W/m2
01:13 40.5 °F 36.3 °F 29.53 in West 14.0 mph 22.0 mph 85 % 0.00 in 0 W/m2
01:18 40.5 °F 36.3 °F 29.53 in West 15.0 mph 28.0 mph 85 % 0.00 in 0 W/m2
01:23 40.6 °F 36.5 °F 29.54 in West 17.0 mph 30.0 mph 85 % 0.00 in 0 W/m2
01:28 40.5 °F 36.9 °F 29.54 in West 15.0 mph 30.0 mph 87 % 0.01 in 0 W/m2
01:33 39.9 °F 36.7 °F 29.54 in WNW 14.0 mph 26.0 mph 88 % 0.01 in 0 W/m2
01:38 39.6 °F 36.3 °F 29.54 in West 13.0 mph 26.0 mph 88 % 0.01 in 0 W/m2
01:43 39.6 °F 36.3 °F 29.53 in West 14.0 mph 25.0 mph 88 % 0.01 in 0 W/m2
01:48 39.6 °F 36.3 °F 29.54 in West 15.0 mph 30.0 mph 88 % 0.01 in 0 W/m2
01:53 39.6 °F 36.0 °F 29.54 in West 15.0 mph 30.0 mph 87 % 0.01 in 0 W/m2
01:58 39.6 °F 36.0 °F 29.54 in West 14.0 mph 26.0 mph 87 % 0.01 in 0 W/m2
02:03 39.6 °F 36.3 °F 29.55 in West 12.0 mph 22.0 mph 88 % 0.01 in 0 W/m2
02:08 39.4 °F 36.4 °F 29.55 in WNW 13.0 mph 26.0 mph 89 % 0.02 in 0 W/m2
02:13 39.0 °F 36.1 °F 29.55 in WNW 16.0 mph 29.0 mph 89 % 0.02 in 0 W/m2
02:18 38.8 °F 36.2 °F 29.55 in West 14.0 mph 29.0 mph 90 % 0.02 in 0 W/m2
02:23 38.8 °F 36.2 °F 29.55 in West 12.0 mph 22.0 mph 90 % 0.02 in 0 W/m2
02:28 39.0 °F 36.1 °F 29.55 in West 13.0 mph 23.0 mph 89 % 0.02 in 0 W/m2
02:33 39.2 °F 35.9 °F 29.55 in West 14.0 mph 26.0 mph 88 % 0.02 in 0 W/m2
02:38 39.2 °F 35.9 °F 29.55 in West 14.0 mph 26.0 mph 88 % 0.02 in 0 W/m2
02:43 39.0 °F 35.5 °F 29.55 in West 14.0 mph 26.0 mph 87 % 0.02 in 0 W/m2
02:48 39.2 °F 35.4 °F 29.55 in West 15.0 mph 26.0 mph 86 % 0.02 in 0 W/m2
02:53 39.4 °F 35.5 °F 29.55 in West 16.0 mph 26.0 mph 86 % 0.02 in 0 W/m2
02:58 39.4 °F 35.2 °F 29.55 in West 14.0 mph 26.0 mph 85 % 0.02 in 0 W/m2
03:03 39.2 °F 35.1 °F 29.56 in West 15.0 mph 24.0 mph 85 % 0.02 in 0 W/m2
03:08 39.2 °F 34.8 °F 29.55 in West 16.0 mph 25.0 mph 84 % 0.01 in 0 W/m2
03:13 39.0 °F 34.6 °F 29.56 in West 15.0 mph 25.0 mph 84 % 0.00 in 0 W/m2
03:18 39.0 °F 34.3 °F 29.56 in West 15.0 mph 27.0 mph 83 % 0.00 in 0 W/m2
03:23 39.0 °F 34.0 °F 29.56 in West 16.0 mph 28.0 mph 82 % 0.00 in 0 W/m2
03:28 39.0 °F 34.0 °F 29.57 in West 15.0 mph 28.0 mph 82 % 0.00 in 0 W/m2
03:33 39.0 °F 34.3 °F 29.57 in West 14.0 mph 23.0 mph 83 % 0.00 in 0 W/m2
03:38 38.8 °F 34.1 °F 29.57 in West 15.0 mph 26.0 mph 83 % 0.00 in 0 W/m2
03:43 38.7 °F 34.2 °F 29.57 in West 14.0 mph 26.0 mph 84 % 0.00 in 0 W/m2
03:48 38.1 °F 34.0 °F 29.57 in West 11.0 mph 19.0 mph 85 % 0.00 in 0 W/m2
03:53 37.9 °F 33.8 °F 29.57 in West 10.0 mph 19.0 mph 85 % 0.00 in 0 W/m2
03:58 37.9 °F 33.8 °F 29.57 in West 10.0 mph 19.0 mph 85 % 0.00 in 0 W/m2
04:03 37.8 °F 33.7 °F 29.57 in West 10.0 mph 21.0 mph 85 % 0.00 in 0 W/m2
04:08 37.8 °F 33.7 °F 29.57 in West 10.0 mph 21.0 mph 85 % 0.00 in 0 W/m2
04:13 37.9 °F 33.8 °F 29.58 in West 11.0 mph 21.0 mph 85 % 0.00 in 0 W/m2
04:18 37.9 °F 33.5 °F 29.58 in West 11.0 mph 21.0 mph 84 % 0.00 in 0 W/m2
04:23 37.9 °F 33.5 °F 29.58 in West 13.0 mph 29.0 mph 84 % 0.00 in 0 W/m2
04:28 38.1 °F 33.7 °F 29.58 in WSW 16.0 mph 29.0 mph 84 % 0.00 in 0 W/m2
04:33 37.9 °F 33.8 °F 29.58 in WSW 16.0 mph 27.0 mph 85 % 0.00 in 0 W/m2
04:38 37.6 °F 33.5 °F 29.58 in WSW 14.0 mph 24.0 mph 85 % 0.00 in 0 W/m2
04:43 37.8 °F 33.7 °F 29.59 in WSW 15.0 mph 25.0 mph 85 % 0.00 in 0 W/m2
04:48 37.8 °F 33.1 °F 29.59 in WSW 15.0 mph 25.0 mph 83 % 0.00 in 0 W/m2
04:53 37.8 °F 33.1 °F 29.59 in WSW 13.0 mph 22.0 mph 83 % 0.00 in 0 W/m2
04:58 37.8 °F 32.8 °F 29.59 in WSW 14.0 mph 24.0 mph 82 % 0.00 in 0 W/m2
05:03 37.8 °F 32.8 °F 29.59 in WSW 14.0 mph 24.0 mph 82 % 0.00 in 0 W/m2
05:08 37.8 °F 32.8 °F 29.60 in WSW 13.0 mph 24.0 mph 82 % 0.00 in 0 W/m2
05:13 37.8 °F 33.1 °F 29.60 in WSW 15.0 mph 26.0 mph 83 % 0.00 in 0 W/m2
05:18 37.4 °F 33.0 °F 29.60 in WSW 14.0 mph 26.0 mph 84 % 0.00 in 0 W/m2
05:23 37.0 °F 32.7 °F 29.60 in WSW 13.0 mph 22.0 mph 84 % 0.00 in 0 W/m2
05:28 37.2 °F 32.5 °F 29.60 in WSW 13.0 mph 23.0 mph 83 % 0.00 in 0 W/m2
05:33 37.4 °F 32.4 °F 29.60 in WSW 15.0 mph 23.0 mph 82 % 0.00 in 0 W/m2
05:34 37.4 °F 32.4 °F 29.60 in WSW 15.0 mph 23.0 mph 82 % 0.00 in 0 W/m2
05:39 37.4 °F 32.4 °F 29.60 in WSW 14.0 mph 21.0 mph 82 % 0.00 in 0 W/m2
05:44 37.2 °F 32.2 °F 29.60 in WSW 12.0 mph 21.0 mph 82 % 0.00 in 0 W/m2
05:49 37.2 °F 32.2 °F 29.60 in WSW 12.0 mph 21.0 mph 82 % 0.00 in 0 W/m2
05:54 37.4 °F 32.1 °F 29.61 in WSW 14.0 mph 22.0 mph 81 % 0.00 in 0 W/m2
05:59 37.4 °F 32.4 °F 29.61 in WSW 17.0 mph 25.0 mph 82 % 0.00 in 0 W/m2
06:04 37.0 °F 32.4 °F 29.61 in WSW 17.0 mph 25.0 mph 83 % 0.00 in 7 W/m2
06:09 36.7 °F 32.6 °F 29.62 in WSW 15.0 mph 24.0 mph 85 % 0.00 in 5 W/m2
06:14 36.5 °F 32.7 °F 29.61 in WSW 13.0 mph 24.0 mph 86 % 0.00 in 7 W/m2
06:19 36.3 °F 32.5 °F 29.61 in WSW 12.0 mph 23.0 mph 86 % 0.00 in 7 W/m2
06:24 36.3 °F 32.5 °F 29.62 in WSW 11.0 mph 23.0 mph 86 % 0.01 in 11 W/m2
06:29 36.1 °F 32.4 °F 29.61 in WSW 10.0 mph 16.0 mph 86 % 0.01 in 14 W/m2
06:34 36.3 °F 32.5 °F 29.62 in WSW 11.0 mph 21.0 mph 86 % 0.01 in 16 W/m2
06:39 36.5 °F 32.1 °F 29.62 in WSW 11.0 mph 21.0 mph 84 % 0.01 in 21 W/m2
06:44 36.9 °F 32.2 °F 29.62 in WSW 13.0 mph 22.0 mph 83 % 0.01 in 25 W/m2
06:49 37.0 °F 32.1 °F 29.62 in WSW 13.0 mph 22.0 mph 82 % 0.01 in 26 W/m2
06:54 37.0 °F 31.4 °F 29.62 in WSW 13.0 mph 21.0 mph 80 % 0.01 in 28 W/m2
06:59 37.4 °F 31.5 °F 29.62 in WSW 14.0 mph 23.0 mph 79 % 0.01 in 32 W/m2
07:04 37.6 °F 31.3 °F 29.62 in WSW 15.0 mph 23.0 mph 78 % 0.01 in 104 W/m2
07:09 37.9 °F 31.7 °F 29.62 in WSW 15.0 mph 26.0 mph 78 % 0.01 in 118 W/m2
07:14 38.1 °F 31.9 °F 29.62 in WSW 15.0 mph 26.0 mph 78 % 0.01 in 132 W/m2
07:19 38.5 °F 31.9 °F 29.63 in WSW 15.0 mph 25.0 mph 77 % 0.01 in 148 W/m2
07:24 38.7 °F 32.1 °F 29.63 in WSW 15.0 mph 26.0 mph 77 % 0.00 in 165 W/m2
07:29 38.7 °F 32.1 °F 29.63 in WSW 15.0 mph 27.0 mph 77 % 0.00 in 176 W/m2
07:34 38.8 °F 31.9 °F 29.62 in WSW 16.0 mph 27.0 mph 76 % 0.00 in 192 W/m2
07:39 39.0 °F 32.4 °F 29.63 in WSW 16.0 mph 24.0 mph 77 % 0.00 in 206 W/m2
07:44 39.2 °F 32.6 °F 29.63 in WSW 14.0 mph 24.0 mph 77 % 0.00 in 216 W/m2
07:49 39.4 °F 32.8 °F 29.63 in WSW 14.0 mph 28.0 mph 77 % 0.00 in 232 W/m2
07:54 39.6 °F 32.9 °F 29.64 in West 15.0 mph 28.0 mph 77 % 0.00 in 243 W/m2
07:59 39.7 °F 33.1 °F 29.64 in West 14.0 mph 28.0 mph 77 % 0.00 in 258 W/m2
08:04 39.9 °F 33.3 °F 29.64 in West 13.0 mph 26.0 mph 77 % 0.00 in 272 W/m2
08:09 40.1 °F 33.1 °F 29.64 in West 15.0 mph 28.0 mph 76 % 0.00 in 288 W/m2
08:14 40.3 °F 33.0 °F 29.64 in WSW 16.0 mph 28.0 mph 75 % 0.00 in 301 W/m2
08:19 40.3 °F 33.0 °F 29.64 in WSW 17.0 mph 26.0 mph 75 % 0.00 in 315 W/m2
08:25 40.5 °F 32.8 °F 29.64 in WSW 17.0 mph 29.0 mph 74 % 0.00 in 329 W/m2
08:30 40.6 °F 32.7 °F 29.64 in WSW 17.0 mph 29.0 mph 73 % 0.00 in 343 W/m2
08:35 40.8 °F 32.8 °F 29.64 in WSW 15.0 mph 28.0 mph 73 % 0.00 in 355 W/m2
08:40 41.0 °F 33.0 °F 29.64 in WSW 15.0 mph 26.0 mph 73 % 0.00 in 369 W/m2
08:45 41.0 °F 32.7 °F 29.64 in WSW 18.0 mph 29.0 mph 72 % 0.00 in 383 W/m2
08:50 41.2 °F 32.5 °F 29.64 in WSW 19.0 mph 29.0 mph 71 % 0.00 in 394 W/m2
08:55 41.4 °F 32.3 °F 29.64 in WSW 18.0 mph 31.0 mph 70 % 0.00 in 406 W/m2
09:00 41.5 °F 32.1 °F 29.64 in WSW 18.0 mph 31.0 mph 69 % 0.00 in 422 W/m2
09:05 41.9 °F 32.8 °F 29.65 in WSW 17.0 mph 30.0 mph 70 % 0.00 in 434 W/m2
09:10 42.3 °F 32.8 °F 29.65 in WSW 16.0 mph 27.0 mph 69 % 0.00 in 443 W/m2
09:15 42.1 °F 32.3 °F 29.65 in WSW 19.0 mph 32.0 mph 68 % 0.00 in 459 W/m2
09:20 42.4 °F 32.6 °F 29.65 in WSW 19.0 mph 32.0 mph 68 % 0.00 in 469 W/m2
09:25 42.6 °F 32.0 °F 29.65 in WSW 18.0 mph 31.0 mph 66 % 0.00 in 475 W/m2
09:30 42.6 °F 32.0 °F 29.65 in West 21.0 mph 31.0 mph 66 % 0.00 in 490 W/m2
09:35 42.8 °F 31.8 °F 29.65 in West 20.0 mph 30.0 mph 65 % 0.00 in 496 W/m2
09:40 43.0 °F 31.6 °F 29.65 in West 20.0 mph 30.0 mph 64 % 0.00 in 508 W/m2
09:45 43.3 °F 32.0 °F 29.66 in West 19.0 mph 32.0 mph 64 % 0.00 in 522 W/m2
09:50 43.5 °F 31.4 °F 29.66 in WSW 19.0 mph 32.0 mph 62 % 0.00 in 531 W/m2
09:55 43.5 °F 31.0 °F 29.66 in WSW 21.0 mph 32.0 mph 61 % 0.00 in 538 W/m2
10:00 43.7 °F 31.5 °F 29.66 in West 19.0 mph 32.0 mph 62 % 0.00 in 555 W/m2
10:05 44.1 °F 31.9 °F 29.66 in West 18.0 mph 29.0 mph 62 % 0.00 in 552 W/m2
10:10 44.2 °F 31.2 °F 29.66 in West 17.0 mph 28.0 mph 60 % 0.00 in 563 W/m2
10:15 44.6 °F 32.0 °F 29.66 in West 17.0 mph 28.0 mph 61 % 0.00 in 589 W/m2
10:20 44.6 °F 32.0 °F 29.66 in West 17.0 mph 29.0 mph 61 % 0.00 in 547 W/m2
10:25 44.4 °F 32.2 °F 29.66 in West 18.0 mph 29.0 mph 62 % 0.00 in 592 W/m2
10:30 44.4 °F 32.6 °F 29.66 in West 17.0 mph 25.0 mph 63 % 0.00 in 606 W/m2
10:35 44.8 °F 32.9 °F 29.66 in West 15.0 mph 25.0 mph 63 % 0.00 in 613 W/m2
10:40 45.1 °F 32.9 °F 29.66 in West 14.0 mph 27.0 mph 62 % 0.00 in 455 W/m2
10:45 45.1 °F 32.5 °F 29.66 in WSW 15.0 mph 27.0 mph 61 % 0.00 in 283 W/m2
10:50 44.2 °F 32.8 °F 29.66 in West 16.0 mph 26.0 mph 64 % 0.00 in 118 W/m2
10:55 44.2 °F 32.8 °F 29.66 in WSW 15.0 mph 26.0 mph 64 % 0.00 in 703 W/m2
11:00 45.3 °F 33.5 °F 29.67 in WSW 15.0 mph 32.0 mph 63 % 0.00 in 707 W/m2
11:05 46.0 °F 31.2 °F 29.66 in WSW 17.0 mph 32.0 mph 56 % 0.00 in 677 W/m2
11:10 46.6 °F 31.3 °F 29.66 in WSW 19.0 mph 31.0 mph 55 % 0.00 in 664 W/m2
11:15 46.6 °F 30.3 °F 29.67 in WSW 19.0 mph 30.0 mph 53 % 0.00 in 680 W/m2
11:20 46.4 °F 30.6 °F 29.66 in WSW 19.0 mph 30.0 mph 54 % 0.00 in 661 W/m2
11:25 46.2 °F 30.0 °F 29.67 in WSW 20.0 mph 32.0 mph 53 % 0.00 in 657 W/m2
11:30 46.2 °F 30.5 °F 29.67 in WSW 20.0 mph 35.0 mph 54 % 0.00 in 675 W/m2
11:35 46.8 °F 32.3 °F 29.67 in WSW 16.0 mph 35.0 mph 57 % 0.00 in 703 W/m2
11:40 47.3 °F 31.5 °F 29.67 in WSW 15.0 mph 25.0 mph 54 % 0.00 in 710 W/m2
11:45 47.5 °F 32.6 °F 29.67 in WSW 16.0 mph 28.0 mph 56 % 0.00 in 694 W/m2
11:50 47.8 °F 32.9 °F 29.67 in WSW 16.0 mph 31.0 mph 56 % 0.00 in 710 W/m2
11:55 47.8 °F 31.5 °F 29.67 in WSW 16.0 mph 31.0 mph 53 % 0.00 in 684 W/m2
12:00 47.8 °F 30.6 °F 29.67 in WSW 18.0 mph 29.0 mph 51 % 0.00 in 682 W/m2
12:05 47.8 °F 30.1 °F 29.67 in WSW 19.0 mph 33.0 mph 50 % 0.00 in 682 W/m2
12:06 47.8 °F 30.1 °F 29.67 in WSW 19.0 mph 33.0 mph 50 % 0.00 in 687 W/m2
12:11 47.7 °F 30.4 °F 29.67 in WSW 19.0 mph 33.0 mph 51 % 0.00 in 696 W/m2
12:16 47.5 °F 31.6 °F 29.68 in WSW 20.0 mph 34.0 mph 54 % 0.00 in 693 W/m2
12:21 47.7 °F 30.9 °F 29.67 in WSW 20.0 mph 34.0 mph 52 % 0.00 in 691 W/m2
12:26 47.8 °F 30.1 °F 29.68 in WSW 19.0 mph 32.0 mph 50 % 0.00 in 729 W/m2
12:31 48.2 °F 29.9 °F 29.68 in WSW 18.0 mph 31.0 mph 49 % 0.00 in 749 W/m2
12:36 48.7 °F 29.9 °F 29.68 in WSW 17.0 mph 31.0 mph 48 % 0.00 in 693 W/m2
12:41 48.6 °F 29.7 °F 29.68 in WSW 17.0 mph 32.0 mph 48 % 0.00 in 744 W/m2
12:44 48.2 °F 29.9 °F 29.68 in WSW 20.0 mph 32.0 mph 49 % 0.00 in 715 W/m2
12:49 48.2 °F 30.9 °F 29.68 in WSW 19.0 mph 30.0 mph 51 % 0.00 in 728 W/m2
12:59 49.5 °F 32.1 °F 29.68 in West 12.0 mph 22.0 mph 51 % 0.00 in 675 W/m2
13:04 49.5 °F 30.6 °F 29.68 in WSW 15.0 mph 31.0 mph 48 % 0.00 in 693 W/m2
13:09 49.3 °F 30.4 °F 29.68 in WSW 17.0 mph 31.0 mph 48 % 0.00 in 693 W/m2
13:14 48.7 °F 29.9 °F 29.68 in WSW 17.0 mph 31.0 mph 48 % 0.00 in 621 W/m2
13:19 48.6 °F 30.2 °F 29.68 in WSW 17.0 mph 31.0 mph 49 % 0.00 in 185 W/m2
13:21 48.6 °F 30.7 °F 29.68 in WSW 17.0 mph 31.0 mph 50 % 0.00 in 659 W/m2
13:26 48.7 °F 30.9 °F 29.68 in West 16.0 mph 26.0 mph 50 % 0.00 in 650 W/m2
13:31 49.1 °F 30.2 °F 29.68 in WSW 17.0 mph 26.0 mph 48 % 0.00 in 659 W/m2
13:36 49.3 °F 29.9 °F 29.68 in WSW 17.0 mph 31.0 mph 47 % 0.00 in 668 W/m2
13:41 48.6 °F 29.2 °F 29.68 in WSW 17.0 mph 31.0 mph 47 % 0.00 in 304 W/m2
13:46 48.4 °F 30.1 °F 29.68 in WSW 16.0 mph 26.0 mph 49 % 0.00 in 612 W/m2
13:51 48.4 °F 29.1 °F 29.69 in WSW 16.0 mph 29.0 mph 47 % 0.00 in 592 W/m2
13:56 48.6 °F 29.7 °F 29.69 in WSW 15.0 mph 29.0 mph 48 % 0.00 in 580 W/m2
14:01 48.7 °F 28.9 °F 29.68 in WSW 15.0 mph 27.0 mph 46 % 0.00 in 471 W/m2
14:06 49.1 °F 29.2 °F 29.69 in WSW 15.0 mph 27.0 mph 46 % 0.00 in 615 W/m2
14:11 49.3 °F 28.8 °F 29.68 in West 15.0 mph 28.0 mph 45 % 0.00 in 578 W/m2
14:12 49.3 °F 28.8 °F 29.68 in West 14.0 mph 28.0 mph 45 % 0.00 in 578 W/m2
14:17 49.5 °F 28.4 °F 29.69 in WSW 16.0 mph 33.0 mph 44 % 0.00 in 536 W/m2
14:22 49.1 °F 28.1 °F 29.68 in WSW 19.0 mph 33.0 mph 44 % 0.00 in 570 W/m2
14:27 48.9 °F 28.5 °F 29.68 in WSW 19.0 mph 30.0 mph 45 % 0.00 in 536 W/m2
14:32 49.1 °F 28.7 °F 29.68 in WSW 18.0 mph 29.0 mph 45 % 0.00 in 557 W/m2
14:37 49.3 °F 29.4 °F 29.68 in West 17.0 mph 25.0 mph 46 % 0.00 in 520 W/m2
14:42 49.3 °F 29.9 °F 29.68 in WSW 16.0 mph 27.0 mph 47 % 0.00 in 527 W/m2
14:47 49.3 °F 29.9 °F 29.68 in WSW 15.0 mph 27.0 mph 47 % 0.00 in 515 W/m2
14:52 48.9 °F 29.6 °F 29.68 in WSW 14.0 mph 22.0 mph 47 % 0.00 in 105 W/m2
14:57 48.0 °F 28.7 °F 29.68 in WSW 14.0 mph 26.0 mph 47 % 0.00 in 113 W/m2
15:02 47.5 °F 28.2 °F 29.68 in WSW 15.0 mph 26.0 mph 47 % 0.00 in 132 W/m2
15:07 47.1 °F 28.9 °F 29.68 in WSW 13.0 mph 23.0 mph 49 % 0.00 in 132 W/m2
15:12 46.9 °F 28.3 °F 29.68 in WSW 14.0 mph 23.0 mph 48 % 0.00 in 151 W/m2
15:17 46.8 °F 28.6 °F 29.68 in WSW 14.0 mph 23.0 mph 49 % 0.00 in 165 W/m2
15:22 46.9 °F 28.3 °F 29.68 in WSW 13.0 mph 24.0 mph 48 % 0.00 in 185 W/m2
15:27 46.9 °F 28.3 °F 29.68 in WSW 14.0 mph 24.0 mph 48 % 0.00 in 197 W/m2
15:32 46.9 °F 28.8 °F 29.68 in WSW 13.0 mph 22.0 mph 49 % 0.00 in 218 W/m2
15:37 47.1 °F 29.4 °F 29.68 in WSW 13.0 mph 24.0 mph 50 % 0.00 in 214 W/m2
15:42 47.1 °F 29.9 °F 29.68 in WSW 14.0 mph 24.0 mph 51 % 0.00 in 192 W/m2
15:52 46.9 °F 30.2 °F 29.68 in WSW 13.0 mph 24.0 mph 52 % 0.00 in 188 W/m2
15:57 46.9 °F 30.7 °F 29.68 in WSW 13.0 mph 24.0 mph 53 % 0.00 in 176 W/m2
16:02 46.9 °F 30.7 °F 29.68 in WSW 12.0 mph 21.0 mph 53 % 0.00 in 179 W/m2
16:07 46.9 °F 31.1 °F 29.68 in WSW 12.0 mph 21.0 mph 54 % 0.00 in 234 W/m2
16:12 47.1 °F 31.3 °F 29.69 in WSW 12.0 mph 22.0 mph 54 % 0.00 in 220 W/m2
16:17 46.9 °F 30.7 °F 29.69 in WSW 14.0 mph 25.0 mph 53 % 0.00 in 193 W/m2
16:27 46.6 °F 30.8 °F 29.69 in WSW 13.0 mph 23.0 mph 54 % 0.00 in 220 W/m2
16:32 46.6 °F 31.7 °F 29.68 in WSW 12.0 mph 22.0 mph 56 % 0.00 in 113 W/m2
16:37 46.2 °F 31.4 °F 29.69 in WSW 12.0 mph 20.0 mph 56 % 0.00 in 100 W/m2
16:42 46.0 °F 31.6 °F 29.69 in WSW 12.0 mph 22.0 mph 57 % 0.00 in 98 W/m2
16:47 45.7 °F 32.2 °F 29.69 in SW 12.0 mph 22.0 mph 59 % 0.00 in 88 W/m2
16:52 45.3 °F 31.4 °F 29.69 in SW 13.0 mph 22.0 mph 58 % 0.00 in 114 W/m2
16:57 45.1 °F 31.2 °F 29.69 in SW 13.0 mph 21.0 mph 58 % 0.00 in 111 W/m2
17:02 45.0 °F 31.9 °F 29.69 in SW 11.0 mph 18.0 mph 60 % 0.00 in 77 W/m2
17:07 45.0 °F 32.3 °F 29.69 in SW 9.0 mph 18.0 mph 61 % 0.00 in 81 W/m2
17:12 44.8 °F 32.1 °F 29.70 in SW 10.0 mph 21.0 mph 61 % 0.00 in 83 W/m2
17:17 44.6 °F 32.4 °F 29.70 in SW 11.0 mph 21.0 mph 62 % 0.00 in 83 W/m2
17:22 44.4 °F 33.4 °F 29.70 in WSW 11.0 mph 21.0 mph 65 % 0.00 in 69 W/m2
17:27 43.7 °F 34.9 °F 29.71 in WSW 14.0 mph 23.0 mph 71 % 0.00 in 60 W/m2
17:33 42.8 °F 35.8 °F 29.70 in WSW 13.0 mph 23.0 mph 76 % 0.00 in 53 W/m2
17:38 42.3 °F 35.6 °F 29.70 in WSW 8.0 mph 16.0 mph 77 % 0.00 in 44 W/m2
17:43 42.1 °F 35.4 °F 29.70 in WSW 7.0 mph 12.0 mph 77 % 0.00 in 35 W/m2
17:48 41.9 °F 35.2 °F 29.70 in WSW 7.0 mph 13.0 mph 77 % 0.00 in 32 W/m2
17:53 41.7 °F 35.0 °F 29.71 in WSW 7.0 mph 13.0 mph 77 % 0.00 in 19 W/m2
17:58 41.7 °F 34.7 °F 29.71 in WSW 6.0 mph 13.0 mph 76 % 0.00 in 14 W/m2
18:03 41.5 °F 34.5 °F 29.71 in WSW 6.0 mph 11.0 mph 76 % 0.00 in 11 W/m2
18:08 41.5 °F 34.5 °F 29.71 in WSW 6.0 mph 11.0 mph 76 % 0.00 in 9 W/m2
18:13 41.5 °F 34.5 °F 29.71 in WSW 6.0 mph 10.0 mph 76 % 0.00 in 7 W/m2
18:18 41.4 °F 34.4 °F 29.71 in SW 7.0 mph 10.0 mph 76 % 0.00 in 0 W/m2
18:23 41.4 °F 34.4 °F 29.71 in SW 6.0 mph 10.0 mph 76 % 0.00 in 0 W/m2
18:28 41.4 °F 34.4 °F 29.71 in SW 5.0 mph 9.0 mph 76 % 0.00 in 0 W/m2
18:33 41.4 °F 34.4 °F 29.71 in SW 5.0 mph 9.0 mph 76 % 0.00 in 0 W/m2
18:38 41.4 °F 34.7 °F 29.71 in SW 5.0 mph 9.0 mph 77 % 0.00 in 0 W/m2
18:43 41.4 °F 34.7 °F 29.71 in SW 5.0 mph 9.0 mph 77 % 0.00 in 0 W/m2
18:48 41.4 °F 34.7 °F 29.71 in SW 5.0 mph 9.0 mph 77 % 0.00 in 0 W/m2
18:53 41.4 °F 34.7 °F 29.71 in SSW 5.0 mph 8.0 mph 77 % 0.00 in 0 W/m2
18:58 41.4 °F 34.4 °F 29.71 in SSW 5.0 mph 9.0 mph 76 % 0.00 in 0 W/m2
19:03 41.4 °F 34.4 °F 29.71 in SSW 4.0 mph 9.0 mph 76 % 0.00 in 0 W/m2
19:08 41.4 °F 34.4 °F 29.70 in SSW 4.0 mph 12.0 mph 76 % 0.00 in 0 W/m2
19:13 41.5 °F 34.5 °F 29.70 in SSW 5.0 mph 12.0 mph 76 % 0.00 in 0 W/m2
19:18 41.5 °F 34.9 °F 29.71 in SW 4.0 mph 9.0 mph 77 % 0.00 in 0 W/m2
19:23 41.5 °F 34.9 °F 29.71 in SSW 5.0 mph 11.0 mph 77 % 0.00 in 0 W/m2
19:28 41.4 °F 34.7 °F 29.71 in SSW 4.0 mph 11.0 mph 77 % 0.00 in 0 W/m2
19:33 41.4 °F 34.7 °F 29.71 in SW 3.0 mph 9.0 mph 77 % 0.00 in 0 W/m2
19:38 41.4 °F 34.7 °F 29.71 in SW 3.0 mph 8.0 mph 77 % 0.00 in 0 W/m2
19:43 41.4 °F 35.0 °F 29.71 in South 2.0 mph 6.0 mph 78 % 0.00 in 0 W/m2
19:48 41.4 °F 35.0 °F 29.71 in South 3.0 mph 6.0 mph 78 % 0.00 in 0 W/m2
19:53 41.4 °F 35.0 °F 29.71 in South 4.0 mph 9.0 mph 78 % 0.00 in 0 W/m2
19:58 41.4 °F 35.0 °F 29.71 in South 6.0 mph 12.0 mph 78 % 0.00 in 0 W/m2
20:03 41.4 °F 35.3 °F 29.71 in SSW 8.0 mph 13.0 mph 79 % 0.00 in 0 W/m2
20:08 41.4 °F 35.3 °F 29.70 in SSW 10.0 mph 19.0 mph 79 % 0.00 in 0 W/m2
20:13 41.4 °F 35.3 °F 29.70 in SSW 11.0 mph 22.0 mph 79 % 0.00 in 0 W/m2
20:18 41.2 °F 35.5 °F 29.71 in SSW 11.0 mph 22.0 mph 80 % 0.00 in 0 W/m2
20:23 41.2 °F 35.5 °F 29.70 in SSW 11.0 mph 18.0 mph 80 % 0.00 in 0 W/m2
20:28 41.2 °F 35.5 °F 29.70 in SW 10.0 mph 14.0 mph 80 % 0.00 in 0 W/m2
20:33 41.0 °F 35.3 °F 29.70 in SW 10.0 mph 19.0 mph 80 % 0.00 in 0 W/m2
20:38 41.0 °F 35.6 °F 29.70 in SSW 11.0 mph 19.0 mph 81 % 0.00 in 0 W/m2
20:43 40.8 °F 35.4 °F 29.70 in SSW 8.0 mph 14.0 mph 81 % 0.00 in 0 W/m2
20:48 40.8 °F 35.4 °F 29.70 in SSW 6.0 mph 11.0 mph 81 % 0.00 in 0 W/m2
20:53 40.8 °F 35.4 °F 29.70 in SW 4.0 mph 11.0 mph 81 % 0.00 in 0 W/m2
20:58 40.8 °F 35.7 °F 29.70 in South 3.0 mph 9.0 mph 82 % 0.00 in 0 W/m2
21:03 40.8 °F 35.7 °F 29.69 in SE 3.0 mph 9.0 mph 82 % 0.00 in 0 W/m2
21:08 41.0 °F 35.9 °F 29.70 in SE 3.0 mph 9.0 mph 82 % 0.00 in 0 W/m2
21:13 41.2 °F 36.1 °F 29.70 in SE 2.0 mph 7.0 mph 82 % 0.00 in 0 W/m2
21:18 41.2 °F 36.1 °F 29.70 in SE 2.0 mph 7.0 mph 82 % 0.00 in 0 W/m2
21:23 41.2 °F 36.1 °F 29.69 in SSE 3.0 mph 8.0 mph 82 % 0.00 in 0 W/m2
21:28 41.2 °F 36.1 °F 29.69 in South 5.0 mph 10.0 mph 82 % 0.00 in 0 W/m2
21:33 41.2 °F 36.1 °F 29.69 in SW 6.0 mph 10.0 mph 82 % 0.00 in 0 W/m2
21:38 41.4 °F 36.3 °F 29.68 in SW 7.0 mph 13.0 mph 82 % 0.00 in 0 W/m2
21:48 41.4 °F 36.3 °F 29.68 in SW 7.0 mph 11.0 mph 82 % 0.00 in 0 W/m2
21:53 41.2 °F 36.4 °F 29.69 in SSW 6.0 mph 11.0 mph 83 % 0.00 in 0 W/m2
21:58 41.2 °F 36.4 °F 29.68 in South 5.0 mph 11.0 mph 83 % 0.00 in 0 W/m2
22:03 41.2 °F 36.4 °F 29.68 in South 4.0 mph 13.0 mph 83 % 0.00 in 0 W/m2
22:08 41.2 °F 36.7 °F 29.69 in SSW 7.0 mph 19.0 mph 84 % 0.00 in 0 W/m2
22:13 41.2 °F 36.7 °F 29.69 in SSW 10.0 mph 19.0 mph 84 % 0.00 in 0 W/m2
22:18 41.2 °F 36.7 °F 29.69 in SW 9.0 mph 16.0 mph 84 % 0.00 in 0 W/m2
22:23 41.2 °F 36.7 °F 29.69 in SW 9.0 mph 13.0 mph 84 % 0.00 in 0 W/m2
22:28 41.2 °F 36.7 °F 29.69 in SSW 9.0 mph 16.0 mph 84 % 0.00 in 0 W/m2
22:33 41.2 °F 36.7 °F 29.69 in SSW 10.0 mph 16.0 mph 84 % 0.00 in 0 W/m2
22:38 41.2 °F 36.7 °F 29.69 in SSW 10.0 mph 19.0 mph 84 % 0.00 in 0 W/m2
22:48 41.2 °F 37.0 °F 29.69 in SSW 11.0 mph 18.0 mph 85 % 0.00 in 0 W/m2
22:53 41.2 °F 36.7 °F 29.69 in SSW 10.0 mph 18.0 mph 84 % 0.00 in 0 W/m2
22:58 41.2 °F 37.0 °F 29.69 in SSW 10.0 mph 18.0 mph 85 % 0.00 in 0 W/m2
23:04 41.2 °F 37.0 °F 29.69 in SSW 8.0 mph 13.0 mph 85 % 0.00 in 0 W/m2
23:09 41.0 °F 36.8 °F 29.69 in SSW 8.0 mph 13.0 mph 85 % 0.00 in 0 W/m2
23:14 41.0 °F 37.1 °F 29.69 in SSW 8.0 mph 13.0 mph 86 % 0.00 in 0 W/m2
23:19 41.0 °F 37.1 °F 29.69 in SSW 8.0 mph 12.0 mph 86 % 0.00 in 0 W/m2
23:24 40.8 °F 37.0 °F 29.69 in SSW 8.0 mph 12.0 mph 86 % 0.00 in 0 W/m2
23:29 40.8 °F 37.3 °F 29.69 in SSW 8.0 mph 16.0 mph 87 % 0.00 in 0 W/m2
23:34 40.6 °F 37.1 °F 29.69 in SSW 9.0 mph 16.0 mph 87 % 0.00 in 0 W/m2
23:39 40.6 °F 37.4 °F 29.69 in SSW 7.0 mph 14.0 mph 88 % 0.00 in 0 W/m2
23:44 40.5 °F 37.2 °F 29.69 in SSW 6.0 mph 14.0 mph 88 % 0.00 in 0 W/m2
23:49 40.5 °F 37.5 °F 29.69 in South 5.0 mph 10.0 mph 89 % 0.00 in 0 W/m2
23:54 40.5 °F 37.5 °F 29.68 in South 5.0 mph 9.0 mph 89 % 0.01 in 0 W/m2
23:59 40.3 °F 37.6 °F 29.68 in SSE 4.0 mph 8.0 mph 90 % 0.01 in 0 W/m2
Delerius-Weather
Compliments of Weather Underground - 2.25 mb

Data updates at regular intervals.